Hauptseite
METAR-TAF:

METAR-TAF

Flughäfen :

Leconfield, England

Breite: 53-52-37N, Länge: 0-26-15W, Höhe: 7 m

Beobachtung

Neuester Wetterbericht von vor 1 Stunde und 2 Minuten, um 07:50 UTC
Wind 3 kt aus Nord/Nordost
Temperatur 6°C
Luftfeuchtigkeit 87%
Luftdruck 1034 hPa
Sichtweite 10 km oder mehr

METAR: EGXV 140750Z AUTO 02003KT 9999 FEW050/// 06/04 Q1034

Zeit: 09:52 (08:52 UTC)


TAF: fehlend

Wetterbeobachtungen und Prognosen von mehr als 4000 Flughäfen (METAR und TAF Bericht).

Die verfügbaren Stationen werden durch gelbe und rote Markierungen auf der Karte dargestellt.

Führen Sie die Maus auf sie, um den Namen der Station zu sehen.

Darauf klicken, um die Beobachtung von Wetterbeobachtungen und Prognosen zu sehen.

Um die Karte zu ändern : klicken Sie auf den grünen Tasten mit einem schwarzen Kreuz Zum Vergrößern, auf den grünen Button mit einem Gedankenstrich zu verkleinern, oder auf die grünen Pfeile für benachbarte Karten.


METAR-TAF: